Terminal Aerodrome Forecast
Issued by NWS Sioux Falls, SD

Home | Current Version | Previous Version | Text Only | Print | Product List | Glossary On
Versions: 1 2 3 4 5 6 7 8 9 10 11 12 13 14 15 16 17 18 19 20 21 22 23 24 25 26 27 28 29 30 31 32 33 34 35 36 37
000
FTUS43 KFSD 141930 AAA
TAFSUX
TAF AMD
KSUX 141930Z 1420/1518 VRB05KT P6SM SCT025 OVC040
      TEMPO 1420/1423 BKN025 OVC035
     FM142300 14004KT P6SM OVC025
     FM150300 14004KT 3SM BR BKN025 OVC050
     FM151000 VRB03KT 2SM BR BKN015
     FM151300 29005KT 5SM BR BKN015
     FM151600 30004KT P6SM SCT025=

USA.gov is the U.S. government's official web portal to all federal, state and local government web resources and services.